This is the latest recevied weather packets stored in our database for station/object K6QM-1. If no packets are shown the sender has not sent any weather packets the latest 10 day(s).
| Time | Temp. | Humidity | Pressure | Rain* | Wind** | Luminosity | Snow |
|---|---|---|---|---|---|---|---|
| 1777738233 | 17.22° C | 63% | 1014.3 hPa | - | - | - | - |
| 1777737333 | 18.89° C | 63% | 1016.7 hPa | - | - | - | - |
| 1777735533 | 18.33° C | 63% | 1018.1 hPa | - | - | - | - |
| 1777734633 | 18.33° C | 64% | 1016.8 hPa | - | - | - | - |
| 1777733733 | 17.22° C | 65% | 1015.7 hPa | - | - | - | - |
| 1777732832 | 18.33° C | 64% | 1016.6 hPa | - | - | - | - |
| 1777731932 | 17.78° C | 64% | 1016.4 hPa | - | - | - | - |
| 1777731032 | 17.78° C | 64% | 1016.2 hPa | - | - | - | - |
| 1777730131 | 17.78° C | 65% | 1016.1 hPa | - | - | - | - |
| 1777729232 | 17.78° C | 63% | 1015.8 hPa | - | - | - | - |
| 1777728331 | 17.78° C | 62% | 1015.7 hPa | - | - | - | - |
| 1777727432 | 18.33° C | 62% | 1015.7 hPa | - | - | - | - |
| 1777726531 | 18.33° C | 62% | 1015.7 hPa | - | - | - | - |
| 1777725632 | 18.33° C | 62% | 1015.7 hPa | - | - | - | - |
| 1777724731 | 18.33° C | 62% | 1015.6 hPa | - | - | - | - |
| 1777723831 | 18.33° C | 62% | 1015.5 hPa | - | - | - | - |
| 1777722931 | 18.33° C | 62% | 1015.5 hPa | - | - | - | - |
| 1777722031 | 18.33° C | 62% | 1015.3 hPa | - | - | - | - |
| 1777721131 | 17.78° C | 63% | 1015.3 hPa | - | - | - | - |
| 1777720231 | 18.33° C | 62% | 1015.3 hPa | - | - | - | - |
| 1777719330 | 18.33° C | 62% | 1015.2 hPa | - | - | - | - |
| 1777718431 | 17.78° C | 63% | 1014.7 hPa | - | - | - | - |
| 1777717530 | 17.78° C | 64% | 1015.2 hPa | - | - | - | - |
| 1777716631 | 18.33° C | 62% | 1015.3 hPa | - | - | - | - |
| 1777715730 | 18.33° C | 61% | 1015.1 hPa | - | - | - | - |
* Rain since midnight (hover to see other rain measurements)
** Current wind speed in m/s (hover to see current wind gust speed)